sensor_id;sensor_type;location;lat;lon;timestamp;temperature;humidity
13433;DHT22;6789;47.678;9.158;2023-12-20T00:01:46;5.40;99.90
13433;DHT22;6789;47.678;9.158;2023-12-20T00:06:38;5.50;99.90
13433;DHT22;6789;47.678;9.158;2023-12-20T00:11:30;5.50;99.90
13433;DHT22;6789;47.678;9.158;2023-12-20T00:16:22;5.60;99.90
13433;DHT22;6789;47.678;9.158;2023-12-20T00:21:13;5.70;99.90
13433;DHT22;6789;47.678;9.158;2023-12-20T00:26:05;5.70;99.90
13433;DHT22;6789;47.678;9.158;2023-12-20T00:30:57;5.80;99.90
13433;DHT22;6789;47.678;9.158;2023-12-20T00:35:49;5.90;99.90
13433;DHT22;6789;47.678;9.158;2023-12-20T00:40:41;5.90;99.90
13433;DHT22;6789;47.678;9.158;2023-12-20T00:45:33;6.00;99.90
13433;DHT22;6789;47.678;9.158;2023-12-20T00:50:25;6.00;99.90
13433;DHT22;6789;47.678;9.158;2023-12-20T00:55:20;6.00;99.90
13433;DHT22;6789;47.678;9.158;2023-12-20T01:00:13;6.00;99.90
13433;DHT22;6789;47.678;9.158;2023-12-20T01:05:06;6.00;99.90
13433;DHT22;6789;47.678;9.158;2023-12-20T01:09:58;6.00;99.90
13433;DHT22;6789;47.678;9.158;2023-12-20T01:14:51;6.10;99.90
13433;DHT22;6789;47.678;9.158;2023-12-20T01:19:42;6.10;99.90
13433;DHT22;6789;47.678;9.158;2023-12-20T01:24:34;6.00;99.90
13433;DHT22;6789;47.678;9.158;2023-12-20T01:29:26;6.00;99.90
13433;DHT22;6789;47.678;9.158;2023-12-20T01:34:18;6.00;99.90
13433;DHT22;6789;47.678;9.158;2023-12-20T01:39:10;6.10;99.90
13433;DHT22;6789;47.678;9.158;2023-12-20T01:44:15;6.10;99.90
13433;DHT22;6789;47.678;9.158;2023-12-20T01:49:07;6.20;99.90
13433;DHT22;6789;47.678;9.158;2023-12-20T01:54:00;6.20;99.90
13433;DHT22;6789;47.678;9.158;2023-12-20T01:58:53;6.20;99.90
13433;DHT22;6789;47.678;9.158;2023-12-20T02:03:46;6.30;99.90
13433;DHT22;6789;47.678;9.158;2023-12-20T02:08:39;6.40;99.90
13433;DHT22;6789;47.678;9.158;2023-12-20T02:13:31;6.40;99.90
13433;DHT22;6789;47.678;9.158;2023-12-20T02:18:23;6.40;99.90
13433;DHT22;6789;47.678;9.158;2023-12-20T02:23:15;6.40;99.90
13433;DHT22;6789;47.678;9.158;2023-12-20T02:28:07;6.50;99.90
13433;DHT22;6789;47.678;9.158;2023-12-20T02:33:00;6.40;99.90
13433;DHT22;6789;47.678;9.158;2023-12-20T02:37:52;6.30;99.90
13433;DHT22;6789;47.678;9.158;2023-12-20T02:42:44;6.20;99.90
13433;DHT22;6789;47.678;9.158;2023-12-20T02:47:36;6.20;99.90
13433;DHT22;6789;47.678;9.158;2023-12-20T02:52:28;6.20;99.90
13433;DHT22;6789;47.678;9.158;2023-12-20T02:57:20;6.20;99.90
13433;DHT22;6789;47.678;9.158;2023-12-20T03:02:12;6.30;99.90
13433;DHT22;6789;47.678;9.158;2023-12-20T03:07:04;6.30;99.90
13433;DHT22;6789;47.678;9.158;2023-12-20T03:11:56;6.30;99.90
13433;DHT22;6789;47.678;9.158;2023-12-20T03:16:49;6.30;99.90
13433;DHT22;6789;47.678;9.158;2023-12-20T03:21:41;6.20;99.90
13433;DHT22;6789;47.678;9.158;2023-12-20T03:26:33;6.30;99.90
13433;DHT22;6789;47.678;9.158;2023-12-20T03:31:25;6.30;99.90
13433;DHT22;6789;47.678;9.158;2023-12-20T03:36:17;6.30;99.90
13433;DHT22;6789;47.678;9.158;2023-12-20T03:41:08;6.40;99.90
13433;DHT22;6789;47.678;9.158;2023-12-20T03:46:00;6.40;99.90
13433;DHT22;6789;47.678;9.158;2023-12-20T03:50:52;6.40;99.90
13433;DHT22;6789;47.678;9.158;2023-12-20T03:55:44;6.30;99.90
13433;DHT22;6789;47.678;9.158;2023-12-20T04:00:36;6.20;99.90
13433;DHT22;6789;47.678;9.158;2023-12-20T04:05:28;6.00;99.90
13433;DHT22;6789;47.678;9.158;2023-12-20T04:10:20;5.90;99.90
13433;DHT22;6789;47.678;9.158;2023-12-20T04:15:26;5.80;99.90
13433;DHT22;6789;47.678;9.158;2023-12-20T04:20:18;5.70;99.90
13433;DHT22;6789;47.678;9.158;2023-12-20T04:25:10;5.80;99.90
13433;DHT22;6789;47.678;9.158;2023-12-20T04:30:02;5.80;99.90
13433;DHT22;6789;47.678;9.158;2023-12-20T04:34:54;5.80;99.90
13433;DHT22;6789;47.678;9.158;2023-12-20T04:39:46;5.80;99.90
13433;DHT22;6789;47.678;9.158;2023-12-20T04:44:38;5.70;99.90
13433;DHT22;6789;47.678;9.158;2023-12-20T04:49:30;5.70;99.90
13433;DHT22;6789;47.678;9.158;2023-12-20T04:54:22;5.60;99.90
13433;DHT22;6789;47.678;9.158;2023-12-20T04:59:13;5.60;99.90
13433;DHT22;6789;47.678;9.158;2023-12-20T05:04:05;5.60;99.90
13433;DHT22;6789;47.678;9.158;2023-12-20T05:08:57;5.60;99.90
13433;DHT22;6789;47.678;9.158;2023-12-20T05:13:49;5.60;99.90
13433;DHT22;6789;47.678;9.158;2023-12-20T05:18:41;5.60;99.90
13433;DHT22;6789;47.678;9.158;2023-12-20T05:23:33;5.60;99.90
13433;DHT22;6789;47.678;9.158;2023-12-20T05:28:24;5.60;99.90
13433;DHT22;6789;47.678;9.158;2023-12-20T05:33:17;5.70;99.90
13433;DHT22;6789;47.678;9.158;2023-12-20T05:38:09;5.70;99.90
13433;DHT22;6789;47.678;9.158;2023-12-20T05:43:00;5.60;99.90
13433;DHT22;6789;47.678;9.158;2023-12-20T05:47:52;5.70;99.90
13433;DHT22;6789;47.678;9.158;2023-12-20T05:52:44;5.70;99.90
13433;DHT22;6789;47.678;9.158;2023-12-20T05:57:36;5.80;99.90
13433;DHT22;6789;47.678;9.158;2023-12-20T06:02:28;5.80;99.90
13433;DHT22;6789;47.678;9.158;2023-12-20T06:07:19;5.70;99.90
13433;DHT22;6789;47.678;9.158;2023-12-20T06:12:12;5.80;99.90
13433;DHT22;6789;47.678;9.158;2023-12-20T06:17:04;5.80;99.90
13433;DHT22;6789;47.678;9.158;2023-12-20T06:21:55;5.90;99.90
13433;DHT22;6789;47.678;9.158;2023-12-20T06:26:47;6.00;99.90
13433;DHT22;6789;47.678;9.158;2023-12-20T06:31:39;6.00;99.90
13433;DHT22;6789;47.678;9.158;2023-12-20T06:36:31;6.10;99.90
13433;DHT22;6789;47.678;9.158;2023-12-20T06:41:23;6.10;99.90
13433;DHT22;6789;47.678;9.158;2023-12-20T06:46:16;6.00;99.90
13433;DHT22;6789;47.678;9.158;2023-12-20T06:51:14;6.10;99.90
13433;DHT22;6789;47.678;9.158;2023-12-20T06:56:07;6.10;99.90
13433;DHT22;6789;47.678;9.158;2023-12-20T07:01:01;6.10;99.90
13433;DHT22;6789;47.678;9.158;2023-12-20T07:05:53;6.20;99.90
13433;DHT22;6789;47.678;9.158;2023-12-20T07:10:45;6.20;99.90
13433;DHT22;6789;47.678;9.158;2023-12-20T07:15:37;6.20;99.90
13433;DHT22;6789;47.678;9.158;2023-12-20T07:20:36;6.30;99.90
13433;DHT22;6789;47.678;9.158;2023-12-20T07:25:28;6.20;99.90
13433;DHT22;6789;47.678;9.158;2023-12-20T07:30:21;6.20;99.90
13433;DHT22;6789;47.678;9.158;2023-12-20T07:35:14;6.30;99.90
13433;DHT22;6789;47.678;9.158;2023-12-20T07:40:08;6.30;99.90
13433;DHT22;6789;47.678;9.158;2023-12-20T07:45:00;6.20;99.90
13433;DHT22;6789;47.678;9.158;2023-12-20T07:49:51;6.30;99.90
13433;DHT22;6789;47.678;9.158;2023-12-20T07:54:44;6.40;99.90
13433;DHT22;6789;47.678;9.158;2023-12-20T07:59:37;6.50;99.90
13433;DHT22;6789;47.678;9.158;2023-12-20T08:04:29;6.50;99.90
13433;DHT22;6789;47.678;9.158;2023-12-20T08:09:21;6.50;99.90
13433;DHT22;6789;47.678;9.158;2023-12-20T08:14:13;6.60;99.90
13433;DHT22;6789;47.678;9.158;2023-12-20T08:19:05;6.70;99.90
13433;DHT22;6789;47.678;9.158;2023-12-20T08:23:57;6.70;99.90
13433;DHT22;6789;47.678;9.158;2023-12-20T08:28:49;6.70;99.90
13433;DHT22;6789;47.678;9.158;2023-12-20T08:33:41;6.70;99.90
13433;DHT22;6789;47.678;9.158;2023-12-20T08:38:35;6.80;99.90
13433;DHT22;6789;47.678;9.158;2023-12-20T08:43:26;6.90;99.90
13433;DHT22;6789;47.678;9.158;2023-12-20T08:48:18;7.00;99.90
13433;DHT22;6789;47.678;9.158;2023-12-20T08:53:10;7.10;99.90
13433;DHT22;6789;47.678;9.158;2023-12-20T08:58:02;7.20;99.90
13433;DHT22;6789;47.678;9.158;2023-12-20T09:02:54;7.20;99.90
13433;DHT22;6789;47.678;9.158;2023-12-20T09:07:46;7.30;99.90
13433;DHT22;6789;47.678;9.158;2023-12-20T09:12:39;7.40;99.90
13433;DHT22;6789;47.678;9.158;2023-12-20T09:17:32;7.40;99.90
13433;DHT22;6789;47.678;9.158;2023-12-20T09:22:24;7.50;99.90
13433;DHT22;6789;47.678;9.158;2023-12-20T09:27:16;7.60;99.90
13433;DHT22;6789;47.678;9.158;2023-12-20T09:32:08;7.70;99.90
13433;DHT22;6789;47.678;9.158;2023-12-20T09:37:00;7.80;99.90
13433;DHT22;6789;47.678;9.158;2023-12-20T09:46:56;8.00;99.90
13433;DHT22;6789;47.678;9.158;2023-12-20T09:51:51;8.20;99.90
13433;DHT22;6789;47.678;9.158;2023-12-20T09:56:46;8.10;99.90
13433;DHT22;6789;47.678;9.158;2023-12-20T10:01:40;8.00;99.90
13433;DHT22;6789;47.678;9.158;2023-12-20T10:06:32;8.00;99.90
13433;DHT22;6789;47.678;9.158;2023-12-20T10:11:25;8.00;99.90
13433;DHT22;6789;47.678;9.158;2023-12-20T10:16:16;8.20;99.90
13433;DHT22;6789;47.678;9.158;2023-12-20T10:21:08;8.10;99.90
13433;DHT22;6789;47.678;9.158;2023-12-20T10:26:02;8.10;99.90
13433;DHT22;6789;47.678;9.158;2023-12-20T10:30:54;8.20;99.90
13433;DHT22;6789;47.678;9.158;2023-12-20T10:35:49;8.30;99.90
13433;DHT22;6789;47.678;9.158;2023-12-20T10:40:42;8.20;99.90
13433;DHT22;6789;47.678;9.158;2023-12-20T10:45:37;8.40;99.90
13433;DHT22;6789;47.678;9.158;2023-12-20T10:50:30;8.40;99.90
13433;DHT22;6789;47.678;9.158;2023-12-20T10:55:24;8.40;99.90
13433;DHT22;6789;47.678;9.158;2023-12-20T11:00:17;8.40;99.90
13433;DHT22;6789;47.678;9.158;2023-12-20T11:10:55;8.30;99.90
13433;DHT22;6789;47.678;9.158;2023-12-20T11:15:49;8.40;99.90
13433;DHT22;6789;47.678;9.158;2023-12-20T11:20:42;8.40;99.90
13433;DHT22;6789;47.678;9.158;2023-12-20T11:25:52;8.50;99.90
13433;DHT22;6789;47.678;9.158;2023-12-20T11:30:51;8.70;99.90
13433;DHT22;6789;47.678;9.158;2023-12-20T11:35:48;8.80;99.90
13433;DHT22;6789;47.678;9.158;2023-12-20T11:40:44;9.00;99.90
13433;DHT22;6789;47.678;9.158;2023-12-20T11:45:36;9.40;99.90
13433;DHT22;6789;47.678;9.158;2023-12-20T11:50:32;9.40;99.90
13433;DHT22;6789;47.678;9.158;2023-12-20T11:55:38;9.30;99.90
13433;DHT22;6789;47.678;9.158;2023-12-20T12:00:30;9.10;99.90
13433;DHT22;6789;47.678;9.158;2023-12-20T12:05:21;9.00;99.90
13433;DHT22;6789;47.678;9.158;2023-12-20T12:10:13;8.80;99.90
13433;DHT22;6789;47.678;9.158;2023-12-20T12:15:06;8.80;99.90
13433;DHT22;6789;47.678;9.158;2023-12-20T12:20:28;9.00;99.90
13433;DHT22;6789;47.678;9.158;2023-12-20T12:36:10;9.30;99.90
13433;DHT22;6789;47.678;9.158;2023-12-20T12:41:04;9.20;99.90
13433;DHT22;6789;47.678;9.158;2023-12-20T12:45:57;9.10;99.90
13433;DHT22;6789;47.678;9.158;2023-12-20T12:50:52;8.80;99.90
13433;DHT22;6789;47.678;9.158;2023-12-20T12:55:44;8.80;99.90
13433;DHT22;6789;47.678;9.158;2023-12-20T13:00:36;8.80;99.90
13433;DHT22;6789;47.678;9.158;2023-12-20T13:05:29;8.80;99.90
13433;DHT22;6789;47.678;9.158;2023-12-20T13:10:37;8.60;99.90
13433;DHT22;6789;47.678;9.158;2023-12-20T13:15:29;8.60;99.90
13433;DHT22;6789;47.678;9.158;2023-12-20T13:20:22;8.60;99.90
13433;DHT22;6789;47.678;9.158;2023-12-20T13:25:13;8.70;99.90
13433;DHT22;6789;47.678;9.158;2023-12-20T13:30:06;9.00;99.90
13433;DHT22;6789;47.678;9.158;2023-12-20T13:34:58;9.10;99.90
13433;DHT22;6789;47.678;9.158;2023-12-20T13:39:50;9.10;99.90
13433;DHT22;6789;47.678;9.158;2023-12-20T13:44:45;8.90;99.90
13433;DHT22;6789;47.678;9.158;2023-12-20T13:49:38;8.60;99.90
13433;DHT22;6789;47.678;9.158;2023-12-20T13:54:30;8.30;99.90
13433;DHT22;6789;47.678;9.158;2023-12-20T13:59:22;8.00;99.90
13433;DHT22;6789;47.678;9.158;2023-12-20T14:04:14;7.80;99.90
13433;DHT22;6789;47.678;9.158;2023-12-20T14:09:25;7.70;99.90
13433;DHT22;6789;47.678;9.158;2023-12-20T14:14:18;7.50;99.90
13433;DHT22;6789;47.678;9.158;2023-12-20T14:19:11;7.30;99.90
13433;DHT22;6789;47.678;9.158;2023-12-20T14:24:03;7.20;99.90
13433;DHT22;6789;47.678;9.158;2023-12-20T14:28:55;7.10;99.90
13433;DHT22;6789;47.678;9.158;2023-12-20T14:33:47;7.10;99.90
13433;DHT22;6789;47.678;9.158;2023-12-20T14:38:40;7.10;99.90
13433;DHT22;6789;47.678;9.158;2023-12-20T14:43:56;7.10;99.90
13433;DHT22;6789;47.678;9.158;2023-12-20T14:49:08;7.00;99.90
13433;DHT22;6789;47.678;9.158;2023-12-20T14:54:01;7.00;99.90
13433;DHT22;6789;47.678;9.158;2023-12-20T14:58:53;6.90;99.90
13433;DHT22;6789;47.678;9.158;2023-12-20T15:03:45;7.00;99.90
13433;DHT22;6789;47.678;9.158;2023-12-20T15:08:36;7.00;99.90
13433;DHT22;6789;47.678;9.158;2023-12-20T15:13:28;7.00;99.90
13433;DHT22;6789;47.678;9.158;2023-12-20T15:18:21;7.00;99.90
13433;DHT22;6789;47.678;9.158;2023-12-20T15:23:13;6.90;99.90
13433;DHT22;6789;47.678;9.158;2023-12-20T15:28:05;6.80;99.90
13433;DHT22;6789;47.678;9.158;2023-12-20T15:32:57;6.80;99.90
13433;DHT22;6789;47.678;9.158;2023-12-20T15:37:49;6.80;99.90
13433;DHT22;6789;47.678;9.158;2023-12-20T15:42:41;6.70;99.90
13433;DHT22;6789;47.678;9.158;2023-12-20T15:47:36;6.50;99.90
13433;DHT22;6789;47.678;9.158;2023-12-20T15:52:28;6.40;99.90
13433;DHT22;6789;47.678;9.158;2023-12-20T15:57:20;6.20;99.90
13433;DHT22;6789;47.678;9.158;2023-12-20T16:02:15;6.10;99.90
13433;DHT22;6789;47.678;9.158;2023-12-20T16:07:08;5.80;99.90
13433;DHT22;6789;47.678;9.158;2023-12-20T16:12:00;5.70;99.90
13433;DHT22;6789;47.678;9.158;2023-12-20T16:16:52;5.50;99.90
13433;DHT22;6789;47.678;9.158;2023-12-20T16:21:44;5.40;99.90
13433;DHT22;6789;47.678;9.158;2023-12-20T16:26:37;5.30;99.90
13433;DHT22;6789;47.678;9.158;2023-12-20T16:32:03;5.10;99.90
13433;DHT22;6789;47.678;9.158;2023-12-20T16:36:55;5.00;99.90
13433;DHT22;6789;47.678;9.158;2023-12-20T16:41:47;5.00;99.90
13433;DHT22;6789;47.678;9.158;2023-12-20T16:46:39;4.80;99.90
13433;DHT22;6789;47.678;9.158;2023-12-20T16:51:32;4.80;99.90
13433;DHT22;6789;47.678;9.158;2023-12-20T16:56:25;4.80;99.90
13433;DHT22;6789;47.678;9.158;2023-12-20T17:01:17;4.70;99.90
13433;DHT22;6789;47.678;9.158;2023-12-20T17:06:10;4.60;99.90
13433;DHT22;6789;47.678;9.158;2023-12-20T17:11:02;4.50;99.90
13433;DHT22;6789;47.678;9.158;2023-12-20T17:15:54;4.50;99.90
13433;DHT22;6789;47.678;9.158;2023-12-20T17:20:45;4.50;99.90
13433;DHT22;6789;47.678;9.158;2023-12-20T17:25:37;4.40;99.90
13433;DHT22;6789;47.678;9.158;2023-12-20T17:30:31;4.30;99.90
13433;DHT22;6789;47.678;9.158;2023-12-20T17:35:23;4.30;99.90
13433;DHT22;6789;47.678;9.158;2023-12-20T17:40:15;4.20;99.90
13433;DHT22;6789;47.678;9.158;2023-12-20T17:45:07;4.20;99.90
13433;DHT22;6789;47.678;9.158;2023-12-20T17:49:59;4.20;99.90
13433;DHT22;6789;47.678;9.158;2023-12-20T17:54:51;4.20;99.90
13433;DHT22;6789;47.678;9.158;2023-12-20T17:59:42;4.30;99.90
13433;DHT22;6789;47.678;9.158;2023-12-20T18:04:34;4.40;99.90
13433;DHT22;6789;47.678;9.158;2023-12-20T18:09:26;4.50;99.90
13433;DHT22;6789;47.678;9.158;2023-12-20T18:14:18;4.60;99.90
13433;DHT22;6789;47.678;9.158;2023-12-20T18:19:09;4.60;99.90
13433;DHT22;6789;47.678;9.158;2023-12-20T18:24:03;4.70;99.90
13433;DHT22;6789;47.678;9.158;2023-12-20T18:29:02;4.80;99.90
13433;DHT22;6789;47.678;9.158;2023-12-20T18:33:54;4.70;99.90
13433;DHT22;6789;47.678;9.158;2023-12-20T18:38:46;4.80;99.90
13433;DHT22;6789;47.678;9.158;2023-12-20T18:43:37;4.70;99.90
13433;DHT22;6789;47.678;9.158;2023-12-20T18:48:29;4.80;99.90
13433;DHT22;6789;47.678;9.158;2023-12-20T18:53:21;4.70;99.90
13433;DHT22;6789;47.678;9.158;2023-12-20T18:58:13;4.70;99.90
13433;DHT22;6789;47.678;9.158;2023-12-20T19:03:05;4.50;99.90
13433;DHT22;6789;47.678;9.158;2023-12-20T19:07:58;4.60;99.90
13433;DHT22;6789;47.678;9.158;2023-12-20T19:12:50;4.60;99.90
13433;DHT22;6789;47.678;9.158;2023-12-20T19:17:42;4.70;99.90
13433;DHT22;6789;47.678;9.158;2023-12-20T19:22:34;4.70;99.90
13433;DHT22;6789;47.678;9.158;2023-12-20T19:27:26;4.70;99.90
13433;DHT22;6789;47.678;9.158;2023-12-20T19:32:18;4.70;99.90
13433;DHT22;6789;47.678;9.158;2023-12-20T19:37:10;4.70;99.90
13433;DHT22;6789;47.678;9.158;2023-12-20T19:42:02;4.70;99.90
13433;DHT22;6789;47.678;9.158;2023-12-20T19:46:53;4.80;99.90
13433;DHT22;6789;47.678;9.158;2023-12-20T19:51:45;4.90;99.90
13433;DHT22;6789;47.678;9.158;2023-12-20T19:56:37;5.00;99.90
13433;DHT22;6789;47.678;9.158;2023-12-20T20:01:29;5.00;99.90
13433;DHT22;6789;47.678;9.158;2023-12-20T20:06:21;5.00;99.90
13433;DHT22;6789;47.678;9.158;2023-12-20T20:11:13;5.10;99.90
13433;DHT22;6789;47.678;9.158;2023-12-20T20:16:20;5.20;99.90
13433;DHT22;6789;47.678;9.158;2023-12-20T20:21:12;5.20;99.90
13433;DHT22;6789;47.678;9.158;2023-12-20T20:26:04;5.30;99.90
13433;DHT22;6789;47.678;9.158;2023-12-20T20:30:56;5.40;99.90
13433;DHT22;6789;47.678;9.158;2023-12-20T20:35:48;5.30;99.90
13433;DHT22;6789;47.678;9.158;2023-12-20T20:40:40;5.30;99.90
13433;DHT22;6789;47.678;9.158;2023-12-20T20:45:32;5.30;99.90
13433;DHT22;6789;47.678;9.158;2023-12-20T20:50:24;5.40;99.90
13433;DHT22;6789;47.678;9.158;2023-12-20T20:55:16;5.40;99.90
13433;DHT22;6789;47.678;9.158;2023-12-20T21:00:08;5.40;99.90
13433;DHT22;6789;47.678;9.158;2023-12-20T21:05:01;5.30;99.90
13433;DHT22;6789;47.678;9.158;2023-12-20T21:09:52;5.30;99.90
13433;DHT22;6789;47.678;9.158;2023-12-20T21:14:46;5.30;99.90
13433;DHT22;6789;47.678;9.158;2023-12-20T21:19:37;5.30;99.90
13433;DHT22;6789;47.678;9.158;2023-12-20T21:24:29;5.30;99.90
13433;DHT22;6789;47.678;9.158;2023-12-20T21:29:21;5.30;99.90
13433;DHT22;6789;47.678;9.158;2023-12-20T21:34:13;5.30;99.90
13433;DHT22;6789;47.678;9.158;2023-12-20T21:39:05;5.30;99.90
13433;DHT22;6789;47.678;9.158;2023-12-20T21:43:59;5.40;99.90
13433;DHT22;6789;47.678;9.158;2023-12-20T21:48:51;5.40;99.90
13433;DHT22;6789;47.678;9.158;2023-12-20T21:53:43;5.40;99.90
13433;DHT22;6789;47.678;9.158;2023-12-20T21:58:36;5.40;99.90
13433;DHT22;6789;47.678;9.158;2023-12-20T22:03:33;5.30;99.90
13433;DHT22;6789;47.678;9.158;2023-12-20T22:08:27;5.30;99.90
13433;DHT22;6789;47.678;9.158;2023-12-20T22:13:19;5.40;99.90
13433;DHT22;6789;47.678;9.158;2023-12-20T22:18:11;5.40;99.90
13433;DHT22;6789;47.678;9.158;2023-12-20T22:23:02;5.40;99.90
13433;DHT22;6789;47.678;9.158;2023-12-20T22:27:54;5.40;99.90
13433;DHT22;6789;47.678;9.158;2023-12-20T22:32:46;5.40;99.90
13433;DHT22;6789;47.678;9.158;2023-12-20T22:37:38;5.40;99.90
13433;DHT22;6789;47.678;9.158;2023-12-20T22:42:30;5.40;99.90
13433;DHT22;6789;47.678;9.158;2023-12-20T22:47:22;5.40;99.90
13433;DHT22;6789;47.678;9.158;2023-12-20T22:52:15;5.40;99.90
13433;DHT22;6789;47.678;9.158;2023-12-20T22:57:07;5.60;99.90
13433;DHT22;6789;47.678;9.158;2023-12-20T23:02:00;5.50;99.90
13433;DHT22;6789;47.678;9.158;2023-12-20T23:07:06;5.50;99.90
13433;DHT22;6789;47.678;9.158;2023-12-20T23:12:12;5.60;99.90
13433;DHT22;6789;47.678;9.158;2023-12-20T23:17:18;5.60;99.90
13433;DHT22;6789;47.678;9.158;2023-12-20T23:22:10;5.60;99.90
13433;DHT22;6789;47.678;9.158;2023-12-20T23:27:02;5.60;99.90
13433;DHT22;6789;47.678;9.158;2023-12-20T23:31:54;5.50;99.90
13433;DHT22;6789;47.678;9.158;2023-12-20T23:36:46;5.60;99.90
13433;DHT22;6789;47.678;9.158;2023-12-20T23:41:37;5.50;99.90
13433;DHT22;6789;47.678;9.158;2023-12-20T23:46:29;5.60;99.90
13433;DHT22;6789;47.678;9.158;2023-12-20T23:51:21;5.60;99.90
13433;DHT22;6789;47.678;9.158;2023-12-20T23:56:13;5.70;99.90
